sensor_id;sensor_type;location;lat;lon;timestamp;P1;durP1;ratioP1;P2;durP2;ratioP2
14187;SDS011;7175;51.978;5.330;2022-12-07T00:01:24;94.43;;;87.57;;
14187;SDS011;7175;51.978;5.330;2022-12-07T00:03:54;97.57;;;90.57;;
14187;SDS011;7175;51.978;5.330;2022-12-07T00:06:27;98.53;;;91.53;;
14187;SDS011;7175;51.978;5.330;2022-12-07T00:08:55;99.13;;;92.10;;
14187;SDS011;7175;51.978;5.330;2022-12-07T00:11:25;99.67;;;92.67;;
14187;SDS011;7175;51.978;5.330;2022-12-07T00:13:54;97.47;;;90.53;;
14187;SDS011;7175;51.978;5.330;2022-12-07T00:16:25;98.20;;;91.40;;
14187;SDS011;7175;51.978;5.330;2022-12-07T00:18:56;101.60;;;94.60;;
14187;SDS011;7175;51.978;5.330;2022-12-07T00:21:25;100.17;;;92.97;;
14187;SDS011;7175;51.978;5.330;2022-12-07T00:23:55;100.60;;;93.30;;
14187;SDS011;7175;51.978;5.330;2022-12-07T00:26:26;99.67;;;92.57;;
14187;SDS011;7175;51.978;5.330;2022-12-07T00:28:56;98.73;;;91.53;;
14187;SDS011;7175;51.978;5.330;2022-12-07T00:31:26;97.40;;;90.40;;
14187;SDS011;7175;51.978;5.330;2022-12-07T00:33:56;98.80;;;91.70;;
14187;SDS011;7175;51.978;5.330;2022-12-07T00:36:25;100.30;;;93.00;;
14187;SDS011;7175;51.978;5.330;2022-12-07T00:38:54;98.87;;;91.57;;
14187;SDS011;7175;51.978;5.330;2022-12-07T00:41:26;101.10;;;93.80;;
14187;SDS011;7175;51.978;5.330;2022-12-07T00:43:56;100.60;;;93.40;;
14187;SDS011;7175;51.978;5.330;2022-12-07T00:46:25;102.50;;;95.10;;
14187;SDS011;7175;51.978;5.330;2022-12-07T00:48:53;101.67;;;94.47;;
14187;SDS011;7175;51.978;5.330;2022-12-07T00:51:22;98.23;;;91.13;;
14187;SDS011;7175;51.978;5.330;2022-12-07T00:53:52;100.70;;;93.67;;
14187;SDS011;7175;51.978;5.330;2022-12-07T00:56:21;98.97;;;91.87;;
14187;SDS011;7175;51.978;5.330;2022-12-07T00:58:52;104.67;;;97.37;;
14187;SDS011;7175;51.978;5.330;2022-12-07T01:01:22;102.17;;;94.97;;
14187;SDS011;7175;51.978;5.330;2022-12-07T01:03:51;100.40;;;93.20;;
14187;SDS011;7175;51.978;5.330;2022-12-07T01:06:19;100.73;;;93.50;;
14187;SDS011;7175;51.978;5.330;2022-12-07T01:08:49;99.83;;;92.53;;
14187;SDS011;7175;51.978;5.330;2022-12-07T01:11:18;99.77;;;92.47;;
14187;SDS011;7175;51.978;5.330;2022-12-07T01:13:52;101.33;;;93.97;;
14187;SDS011;7175;51.978;5.330;2022-12-07T01:16:22;104.73;;;97.37;;
14187;SDS011;7175;51.978;5.330;2022-12-07T01:18:53;103.67;;;96.20;;
14187;SDS011;7175;51.978;5.330;2022-12-07T01:21:22;101.77;;;94.37;;
14187;SDS011;7175;51.978;5.330;2022-12-07T01:23:51;102.30;;;95.00;;
14187;SDS011;7175;51.978;5.330;2022-12-07T01:26:21;105.00;;;97.50;;
14187;SDS011;7175;51.978;5.330;2022-12-07T01:28:51;103.20;;;95.73;;
14187;SDS011;7175;51.978;5.330;2022-12-07T01:31:22;104.93;;;97.57;;
14187;SDS011;7175;51.978;5.330;2022-12-07T01:33:52;103.17;;;95.80;;
14187;SDS011;7175;51.978;5.330;2022-12-07T01:36:22;101.27;;;93.97;;
14187;SDS011;7175;51.978;5.330;2022-12-07T01:38:54;103.37;;;95.97;;
14187;SDS011;7175;51.978;5.330;2022-12-07T01:41:24;105.37;;;97.97;;
14187;SDS011;7175;51.978;5.330;2022-12-07T01:46:53;104.10;;;96.70;;
14187;SDS011;7175;51.978;5.330;2022-12-07T01:49:23;104.47;;;97.07;;
14187;SDS011;7175;51.978;5.330;2022-12-07T01:51:57;104.07;;;96.67;;
14187;SDS011;7175;51.978;5.330;2022-12-07T01:54:31;108.63;;;101.03;;
14187;SDS011;7175;51.978;5.330;2022-12-07T01:57:00;105.50;;;97.90;;
14187;SDS011;7175;51.978;5.330;2022-12-07T01:59:31;105.47;;;97.90;;
14187;SDS011;7175;51.978;5.330;2022-12-07T02:01:59;103.07;;;95.67;;
14187;SDS011;7175;51.978;5.330;2022-12-07T02:04:31;104.30;;;96.90;;
14187;SDS011;7175;51.978;5.330;2022-12-07T02:07:00;101.33;;;93.93;;
14187;SDS011;7175;51.978;5.330;2022-12-07T02:09:29;102.03;;;94.63;;
14187;SDS011;7175;51.978;5.330;2022-12-07T02:11:57;104.10;;;96.70;;
14187;SDS011;7175;51.978;5.330;2022-12-07T02:14:26;105.10;;;97.60;;
14187;SDS011;7175;51.978;5.330;2022-12-07T02:16:59;105.43;;;98.13;;
14187;SDS011;7175;51.978;5.330;2022-12-07T02:25:53;104.43;;;97.03;;
14187;SDS011;7175;51.978;5.330;2022-12-07T02:28:33;103.43;;;95.87;;
14187;SDS011;7175;51.978;5.330;2022-12-07T02:31:06;103.40;;;95.90;;
14187;SDS011;7175;51.978;5.330;2022-12-07T02:33:49;103.07;;;95.60;;
14187;SDS011;7175;51.978;5.330;2022-12-07T02:36:23;107.50;;;99.70;;
14187;SDS011;7175;51.978;5.330;2022-12-07T02:38:57;106.47;;;98.97;;
14187;SDS011;7175;51.978;5.330;2022-12-07T02:41:29;106.87;;;99.27;;
14187;SDS011;7175;51.978;5.330;2022-12-07T02:44:02;108.43;;;100.73;;
14187;SDS011;7175;51.978;5.330;2022-12-07T02:46:36;105.67;;;98.27;;
14187;SDS011;7175;51.978;5.330;2022-12-07T02:49:08;105.00;;;97.53;;
14187;SDS011;7175;51.978;5.330;2022-12-07T02:51:38;107.33;;;99.90;;
14187;SDS011;7175;51.978;5.330;2022-12-07T02:54:09;105.60;;;98.13;;
14187;SDS011;7175;51.978;5.330;2022-12-07T02:56:42;106.10;;;98.50;;
14187;SDS011;7175;51.978;5.330;2022-12-07T02:59:17;108.30;;;100.70;;
14187;SDS011;7175;51.978;5.330;2022-12-07T03:01:59;107.20;;;99.60;;
14187;SDS011;7175;51.978;5.330;2022-12-07T03:04:41;106.90;;;99.47;;
14187;SDS011;7175;51.978;5.330;2022-12-07T03:07:16;105.57;;;98.07;;
14187;SDS011;7175;51.978;5.330;2022-12-07T03:09:53;106.30;;;98.90;;
14187;SDS011;7175;51.978;5.330;2022-12-07T03:12:30;104.20;;;96.80;;
14187;SDS011;7175;51.978;5.330;2022-12-07T03:15:03;103.27;;;95.87;;
14187;SDS011;7175;51.978;5.330;2022-12-07T03:17:37;102.83;;;95.33;;
14187;SDS011;7175;51.978;5.330;2022-12-07T03:20:09;101.17;;;93.67;;
14187;SDS011;7175;51.978;5.330;2022-12-07T03:22:39;103.47;;;95.97;;
14187;SDS011;7175;51.978;5.330;2022-12-07T03:25:11;103.63;;;96.23;;
14187;SDS011;7175;51.978;5.330;2022-12-07T03:27:44;104.30;;;96.80;;
14187;SDS011;7175;51.978;5.330;2022-12-07T03:30:19;105.73;;;98.03;;
14187;SDS011;7175;51.978;5.330;2022-12-07T03:32:52;103.97;;;96.20;;
14187;SDS011;7175;51.978;5.330;2022-12-07T03:35:26;103.33;;;95.73;;
14187;SDS011;7175;51.978;5.330;2022-12-07T03:37:58;102.27;;;94.57;;
14187;SDS011;7175;51.978;5.330;2022-12-07T03:40:30;105.13;;;97.43;;
14187;SDS011;7175;51.978;5.330;2022-12-07T03:43:01;107.63;;;99.83;;
14187;SDS011;7175;51.978;5.330;2022-12-07T03:45:33;108.97;;;101.27;;
14187;SDS011;7175;51.978;5.330;2022-12-07T03:48:08;108.43;;;100.73;;
14187;SDS011;7175;51.978;5.330;2022-12-07T03:50:48;105.73;;;98.10;;
14187;SDS011;7175;51.978;5.330;2022-12-07T03:53:20;104.33;;;96.83;;
14187;SDS011;7175;51.978;5.330;2022-12-07T03:55:56;104.07;;;96.47;;
14187;SDS011;7175;51.978;5.330;2022-12-07T03:58:25;105.07;;;97.47;;
14187;SDS011;7175;51.978;5.330;2022-12-07T04:00:54;107.40;;;99.73;;
14187;SDS011;7175;51.978;5.330;2022-12-07T04:03:24;101.70;;;94.10;;
14187;SDS011;7175;51.978;5.330;2022-12-07T04:05:52;103.27;;;95.77;;
14187;SDS011;7175;51.978;5.330;2022-12-07T04:08:21;101.93;;;94.43;;
14187;SDS011;7175;51.978;5.330;2022-12-07T04:10:49;100.60;;;93.27;;
14187;SDS011;7175;51.978;5.330;2022-12-07T04:13:17;103.37;;;95.93;;
14187;SDS011;7175;51.978;5.330;2022-12-07T04:15:45;107.13;;;99.53;;
14187;SDS011;7175;51.978;5.330;2022-12-07T04:18:13;103.53;;;95.93;;
14187;SDS011;7175;51.978;5.330;2022-12-07T04:20:43;102.27;;;94.67;;
14187;SDS011;7175;51.978;5.330;2022-12-07T04:23:12;100.53;;;93.20;;
14187;SDS011;7175;51.978;5.330;2022-12-07T04:25:40;103.63;;;96.03;;
14187;SDS011;7175;51.978;5.330;2022-12-07T04:28:09;102.27;;;94.70;;
14187;SDS011;7175;51.978;5.330;2022-12-07T04:30:37;104.10;;;96.50;;
14187;SDS011;7175;51.978;5.330;2022-12-07T04:33:06;101.50;;;93.90;;
14187;SDS011;7175;51.978;5.330;2022-12-07T04:35:35;101.73;;;94.23;;
14187;SDS011;7175;51.978;5.330;2022-12-07T04:38:04;102.60;;;95.00;;
14187;SDS011;7175;51.978;5.330;2022-12-07T04:40:32;99.93;;;92.40;;
14187;SDS011;7175;51.978;5.330;2022-12-07T04:43:01;98.57;;;91.17;;
14187;SDS011;7175;51.978;5.330;2022-12-07T04:45:31;97.40;;;90.20;;
14187;SDS011;7175;51.978;5.330;2022-12-07T04:47:59;98.87;;;91.67;;
14187;SDS011;7175;51.978;5.330;2022-12-07T04:50:27;96.53;;;89.30;;
14187;SDS011;7175;51.978;5.330;2022-12-07T04:52:55;100.20;;;92.80;;
14187;SDS011;7175;51.978;5.330;2022-12-07T04:55:25;99.97;;;92.57;;
14187;SDS011;7175;51.978;5.330;2022-12-07T04:57:53;98.77;;;91.43;;
14187;SDS011;7175;51.978;5.330;2022-12-07T05:00:21;98.93;;;91.47;;
14187;SDS011;7175;51.978;5.330;2022-12-07T05:02:49;97.93;;;90.63;;
14187;SDS011;7175;51.978;5.330;2022-12-07T05:05:17;102.53;;;94.87;;
14187;SDS011;7175;51.978;5.330;2022-12-07T05:07:45;100.00;;;92.40;;
14187;SDS011;7175;51.978;5.330;2022-12-07T05:10:14;93.80;;;86.30;;
14187;SDS011;7175;51.978;5.330;2022-12-07T05:12:43;89.37;;;81.97;;
14187;SDS011;7175;51.978;5.330;2022-12-07T05:15:12;94.20;;;86.80;;
14187;SDS011;7175;51.978;5.330;2022-12-07T05:17:40;95.57;;;88.40;;
14187;SDS011;7175;51.978;5.330;2022-12-07T05:20:09;96.20;;;88.87;;
14187;SDS011;7175;51.978;5.330;2022-12-07T05:22:38;93.67;;;86.17;;
14187;SDS011;7175;51.978;5.330;2022-12-07T05:25:06;96.67;;;89.23;;
14187;SDS011;7175;51.978;5.330;2022-12-07T05:27:35;97.03;;;89.70;;
14187;SDS011;7175;51.978;5.330;2022-12-07T05:30:05;97.40;;;90.00;;
14187;SDS011;7175;51.978;5.330;2022-12-07T05:32:34;98.10;;;90.50;;
14187;SDS011;7175;51.978;5.330;2022-12-07T05:35:02;94.57;;;87.37;;
14187;SDS011;7175;51.978;5.330;2022-12-07T05:37:30;94.80;;;87.50;;
14187;SDS011;7175;51.978;5.330;2022-12-07T05:39:59;98.60;;;91.00;;
14187;SDS011;7175;51.978;5.330;2022-12-07T05:42:27;100.70;;;93.30;;
14187;SDS011;7175;51.978;5.330;2022-12-07T05:44:56;97.50;;;90.30;;
14187;SDS011;7175;51.978;5.330;2022-12-07T05:47:25;100.57;;;93.47;;
14187;SDS011;7175;51.978;5.330;2022-12-07T05:49:53;98.93;;;91.80;;
14187;SDS011;7175;51.978;5.330;2022-12-07T05:52:22;96.27;;;89.17;;
14187;SDS011;7175;51.978;5.330;2022-12-07T05:54:50;89.90;;;83.10;;
14187;SDS011;7175;51.978;5.330;2022-12-07T05:57:18;88.50;;;81.70;;
14187;SDS011;7175;51.978;5.330;2022-12-07T05:59:46;91.47;;;84.47;;
14187;SDS011;7175;51.978;5.330;2022-12-07T06:02:14;91.83;;;84.83;;
14187;SDS011;7175;51.978;5.330;2022-12-07T06:04:46;92.03;;;84.93;;
14187;SDS011;7175;51.978;5.330;2022-12-07T06:07:15;91.23;;;84.33;;
14187;SDS011;7175;51.978;5.330;2022-12-07T06:09:43;88.97;;;82.10;;
14187;SDS011;7175;51.978;5.330;2022-12-07T06:12:12;87.20;;;80.30;;
14187;SDS011;7175;51.978;5.330;2022-12-07T06:14:58;89.70;;;82.60;;
14187;SDS011;7175;51.978;5.330;2022-12-07T06:17:26;90.17;;;83.27;;
14187;SDS011;7175;51.978;5.330;2022-12-07T06:19:56;89.00;;;82.10;;
14187;SDS011;7175;51.978;5.330;2022-12-07T06:22:25;90.53;;;83.40;;
14187;SDS011;7175;51.978;5.330;2022-12-07T06:24:54;94.00;;;86.80;;
14187;SDS011;7175;51.978;5.330;2022-12-07T06:27:22;89.77;;;82.67;;
14187;SDS011;7175;51.978;5.330;2022-12-07T06:29:50;90.53;;;83.43;;
14187;SDS011;7175;51.978;5.330;2022-12-07T06:32:18;91.90;;;84.80;;
14187;SDS011;7175;51.978;5.330;2022-12-07T06:34:47;92.07;;;85.07;;
14187;SDS011;7175;51.978;5.330;2022-12-07T06:37:16;89.07;;;82.07;;
14187;SDS011;7175;51.978;5.330;2022-12-07T06:39:44;93.50;;;86.43;;
14187;SDS011;7175;51.978;5.330;2022-12-07T06:42:12;94.00;;;86.90;;
14187;SDS011;7175;51.978;5.330;2022-12-07T06:44:41;92.67;;;85.67;;
14187;SDS011;7175;51.978;5.330;2022-12-07T06:47:09;95.80;;;88.60;;
14187;SDS011;7175;51.978;5.330;2022-12-07T06:49:57;94.53;;;87.50;;
14187;SDS011;7175;51.978;5.330;2022-12-07T06:52:28;94.33;;;87.17;;
14187;SDS011;7175;51.978;5.330;2022-12-07T06:54:56;93.80;;;86.70;;
14187;SDS011;7175;51.978;5.330;2022-12-07T06:57:25;96.60;;;89.33;;
14187;SDS011;7175;51.978;5.330;2022-12-07T06:59:53;95.10;;;87.87;;
14187;SDS011;7175;51.978;5.330;2022-12-07T07:02:21;92.40;;;85.20;;
14187;SDS011;7175;51.978;5.330;2022-12-07T07:04:49;95.53;;;88.23;;
14187;SDS011;7175;51.978;5.330;2022-12-07T07:07:17;100.97;;;93.57;;
14187;SDS011;7175;51.978;5.330;2022-12-07T07:09:47;95.30;;;88.10;;
14187;SDS011;7175;51.978;5.330;2022-12-07T07:12:15;98.17;;;90.87;;
14187;SDS011;7175;51.978;5.330;2022-12-07T07:14:43;95.53;;;88.37;;
14187;SDS011;7175;51.978;5.330;2022-12-07T07:17:11;105.00;;;97.30;;
14187;SDS011;7175;51.978;5.330;2022-12-07T07:19:39;105.30;;;97.60;;
14187;SDS011;7175;51.978;5.330;2022-12-07T07:22:08;103.27;;;95.77;;
14187;SDS011;7175;51.978;5.330;2022-12-07T07:24:36;101.37;;;93.87;;
14187;SDS011;7175;51.978;5.330;2022-12-07T07:27:05;102.73;;;95.17;;
14187;SDS011;7175;51.978;5.330;2022-12-07T07:29:33;98.90;;;91.50;;
14187;SDS011;7175;51.978;5.330;2022-12-07T07:32:01;96.20;;;89.00;;
14187;SDS011;7175;51.978;5.330;2022-12-07T07:34:32;100.07;;;92.67;;
14187;SDS011;7175;51.978;5.330;2022-12-07T07:37:01;99.90;;;92.50;;
14187;SDS011;7175;51.978;5.330;2022-12-07T07:39:29;98.73;;;91.40;;
14187;SDS011;7175;51.978;5.330;2022-12-07T07:41:57;100.43;;;92.93;;
14187;SDS011;7175;51.978;5.330;2022-12-07T07:44:27;96.20;;;88.80;;
14187;SDS011;7175;51.978;5.330;2022-12-07T07:47:00;97.30;;;89.90;;
14187;SDS011;7175;51.978;5.330;2022-12-07T07:49:29;105.00;;;97.20;;
14187;SDS011;7175;51.978;5.330;2022-12-07T07:51:57;102.87;;;95.17;;
14187;SDS011;7175;51.978;5.330;2022-12-07T07:54:25;104.23;;;96.47;;
14187;SDS011;7175;51.978;5.330;2022-12-07T07:56:53;109.90;;;101.90;;
14187;SDS011;7175;51.978;5.330;2022-12-07T07:59:21;109.63;;;101.73;;
14187;SDS011;7175;51.978;5.330;2022-12-07T08:01:53;110.17;;;102.17;;
14187;SDS011;7175;51.978;5.330;2022-12-07T08:04:22;109.00;;;100.87;;
14187;SDS011;7175;51.978;5.330;2022-12-07T08:06:50;112.37;;;104.27;;
14187;SDS011;7175;51.978;5.330;2022-12-07T08:09:18;112.87;;;104.77;;
14187;SDS011;7175;51.978;5.330;2022-12-07T08:11:46;114.10;;;105.90;;
14187;SDS011;7175;51.978;5.330;2022-12-07T08:14:14;111.10;;;102.83;;
14187;SDS011;7175;51.978;5.330;2022-12-07T08:16:43;109.07;;;101.17;;
14187;SDS011;7175;51.978;5.330;2022-12-07T08:19:12;115.40;;;107.10;;
14187;SDS011;7175;51.978;5.330;2022-12-07T08:21:40;111.77;;;103.67;;
14187;SDS011;7175;51.978;5.330;2022-12-07T08:24:08;116.37;;;107.97;;
14187;SDS011;7175;51.978;5.330;2022-12-07T08:26:37;118.10;;;109.60;;
14187;SDS011;7175;51.978;5.330;2022-12-07T08:29:05;115.73;;;107.23;;
14187;SDS011;7175;51.978;5.330;2022-12-07T08:31:34;115.50;;;107.10;;
14187;SDS011;7175;51.978;5.330;2022-12-07T08:34:03;119.23;;;110.73;;
14187;SDS011;7175;51.978;5.330;2022-12-07T08:36:33;123.23;;;113.73;;
14187;SDS011;7175;51.978;5.330;2022-12-07T08:39:07;120.33;;;111.83;;
14187;SDS011;7175;51.978;5.330;2022-12-07T08:41:55;121.60;;;113.03;;
14187;SDS011;7175;51.978;5.330;2022-12-07T08:44:24;122.47;;;113.97;;
14187;SDS011;7175;51.978;5.330;2022-12-07T08:46:53;120.00;;;111.50;;
14187;SDS011;7175;51.978;5.330;2022-12-07T08:49:24;120.60;;;112.03;;
14187;SDS011;7175;51.978;5.330;2022-12-07T08:51:57;118.80;;;110.23;;
14187;SDS011;7175;51.978;5.330;2022-12-07T08:54:26;117.77;;;109.47;;
14187;SDS011;7175;51.978;5.330;2022-12-07T08:56:56;122.63;;;114.13;;
14187;SDS011;7175;51.978;5.330;2022-12-07T08:59:25;114.60;;;106.40;;
14187;SDS011;7175;51.978;5.330;2022-12-07T09:01:55;109.47;;;101.40;;
14187;SDS011;7175;51.978;5.330;2022-12-07T09:04:23;110.47;;;102.20;;
14187;SDS011;7175;51.978;5.330;2022-12-07T09:06:51;105.87;;;97.73;;
14187;SDS011;7175;51.978;5.330;2022-12-07T09:09:23;101.47;;;93.53;;
14187;SDS011;7175;51.978;5.330;2022-12-07T09:11:51;101.37;;;93.37;;
14187;SDS011;7175;51.978;5.330;2022-12-07T09:14:19;105.77;;;97.50;;
14187;SDS011;7175;51.978;5.330;2022-12-07T09:16:47;109.67;;;101.17;;
14187;SDS011;7175;51.978;5.330;2022-12-07T09:19:16;107.73;;;99.43;;
14187;SDS011;7175;51.978;5.330;2022-12-07T09:21:45;106.53;;;98.33;;
14187;SDS011;7175;51.978;5.330;2022-12-07T09:24:13;111.23;;;102.93;;
14187;SDS011;7175;51.978;5.330;2022-12-07T09:26:42;112.00;;;103.70;;
14187;SDS011;7175;51.978;5.330;2022-12-07T09:29:11;111.67;;;103.33;;
14187;SDS011;7175;51.978;5.330;2022-12-07T09:31:39;111.10;;;102.90;;
14187;SDS011;7175;51.978;5.330;2022-12-07T09:34:07;111.00;;;102.83;;
14187;SDS011;7175;51.978;5.330;2022-12-07T09:36:36;110.53;;;102.23;;
14187;SDS011;7175;51.978;5.330;2022-12-07T09:39:04;119.13;;;110.63;;
14187;SDS011;7175;51.978;5.330;2022-12-07T09:41:32;120.90;;;112.30;;
14187;SDS011;7175;51.978;5.330;2022-12-07T09:44:04;112.53;;;104.43;;
14187;SDS011;7175;51.978;5.330;2022-12-07T09:46:34;111.17;;;102.97;;
14187;SDS011;7175;51.978;5.330;2022-12-07T09:49:04;108.37;;;100.07;;
14187;SDS011;7175;51.978;5.330;2022-12-07T09:51:32;112.53;;;104.03;;
14187;SDS011;7175;51.978;5.330;2022-12-07T09:54:01;110.00;;;101.70;;
14187;SDS011;7175;51.978;5.330;2022-12-07T09:56:29;105.97;;;98.10;;
14187;SDS011;7175;51.978;5.330;2022-12-07T09:58:59;103.03;;;95.33;;
14187;SDS011;7175;51.978;5.330;2022-12-07T10:01:32;102.00;;;94.40;;
14187;SDS011;7175;51.978;5.330;2022-12-07T10:04:02;97.00;;;89.60;;
14187;SDS011;7175;51.978;5.330;2022-12-07T10:06:39;101.93;;;94.23;;
14187;SDS011;7175;51.978;5.330;2022-12-07T10:09:09;116.77;;;108.13;;
14187;SDS011;7175;51.978;5.330;2022-12-07T10:14:28;111.63;;;103.33;;
14187;SDS011;7175;51.978;5.330;2022-12-07T10:17:30;114.23;;;105.83;;
14187;SDS011;7175;51.978;5.330;2022-12-07T10:20:17;101.03;;;93.43;;
14187;SDS011;7175;51.978;5.330;2022-12-07T10:22:55;109.07;;;101.07;;
14187;SDS011;7175;51.978;5.330;2022-12-07T10:25:29;105.50;;;97.80;;
14187;SDS011;7175;51.978;5.330;2022-12-07T10:28:00;101.97;;;94.27;;
14187;SDS011;7175;51.978;5.330;2022-12-07T10:33:33;107.70;;;99.80;;
14187;SDS011;7175;51.978;5.330;2022-12-07T10:38:47;122.90;;;114.07;;
14187;SDS011;7175;51.978;5.330;2022-12-07T10:41:17;115.70;;;107.30;;
14187;SDS011;7175;51.978;5.330;2022-12-07T10:43:47;118.63;;;110.07;;
14187;SDS011;7175;51.978;5.330;2022-12-07T10:49:25;106.17;;;98.20;;
14187;SDS011;7175;51.978;5.330;2022-12-07T10:52:23;109.07;;;101.07;;
14187;SDS011;7175;51.978;5.330;2022-12-07T10:55:05;105.27;;;97.47;;
14187;SDS011;7175;51.978;5.330;2022-12-07T10:57:43;107.70;;;99.63;;
14187;SDS011;7175;51.978;5.330;2022-12-07T11:00:24;112.10;;;103.87;;
14187;SDS011;7175;51.978;5.330;2022-12-07T11:03:00;122.47;;;113.57;;
14187;SDS011;7175;51.978;5.330;2022-12-07T11:05:52;117.33;;;108.83;;
14187;SDS011;7175;51.978;5.330;2022-12-07T11:08:33;121.37;;;112.57;;
14187;SDS011;7175;51.978;5.330;2022-12-07T11:11:13;119.77;;;111.07;;
14187;SDS011;7175;51.978;5.330;2022-12-07T11:13:47;121.30;;;112.50;;
14187;SDS011;7175;51.978;5.330;2022-12-07T11:16:25;116.53;;;107.93;;
14187;SDS011;7175;51.978;5.330;2022-12-07T11:19:14;113.53;;;105.13;;
14187;SDS011;7175;51.978;5.330;2022-12-07T11:21:56;110.37;;;101.97;;
14187;SDS011;7175;51.978;5.330;2022-12-07T11:24:27;108.00;;;99.80;;
14187;SDS011;7175;51.978;5.330;2022-12-07T11:27:09;101.00;;;93.30;;
14187;SDS011;7175;51.978;5.330;2022-12-07T11:29:48;102.43;;;94.63;;
14187;SDS011;7175;51.978;5.330;2022-12-07T11:32:27;100.10;;;92.57;;
14187;SDS011;7175;51.978;5.330;2022-12-07T11:35:11;99.93;;;92.73;;
14187;SDS011;7175;51.978;5.330;2022-12-07T11:37:54;95.43;;;88.43;;
14187;SDS011;7175;51.978;5.330;2022-12-07T11:40:26;96.87;;;89.87;;
14187;SDS011;7175;51.978;5.330;2022-12-07T11:42:58;97.70;;;90.60;;
14187;SDS011;7175;51.978;5.330;2022-12-07T11:45:30;91.27;;;84.47;;
14187;SDS011;7175;51.978;5.330;2022-12-07T11:48:01;97.10;;;90.00;;
14187;SDS011;7175;51.978;5.330;2022-12-07T11:50:33;99.27;;;92.17;;
14187;SDS011;7175;51.978;5.330;2022-12-07T11:53:09;94.30;;;87.50;;
14187;SDS011;7175;51.978;5.330;2022-12-07T11:55:45;94.57;;;87.77;;
14187;SDS011;7175;51.978;5.330;2022-12-07T11:58:20;91.80;;;85.10;;
14187;SDS011;7175;51.978;5.330;2022-12-07T12:01:07;90.90;;;84.20;;
14187;SDS011;7175;51.978;5.330;2022-12-07T12:03:42;94.20;;;87.70;;
14187;SDS011;7175;51.978;5.330;2022-12-07T12:06:19;97.23;;;90.53;;
14187;SDS011;7175;51.978;5.330;2022-12-07T12:08:50;95.60;;;88.97;;
14187;SDS011;7175;51.978;5.330;2022-12-07T12:11:50;88.73;;;82.43;;
14187;SDS011;7175;51.978;5.330;2022-12-07T12:15:03;88.47;;;82.17;;
14187;SDS011;7175;51.978;5.330;2022-12-07T12:17:47;85.77;;;79.50;;
14187;SDS011;7175;51.978;5.330;2022-12-07T12:20:40;86.97;;;80.77;;
14187;SDS011;7175;51.978;5.330;2022-12-07T12:23:13;92.33;;;85.83;;
14187;SDS011;7175;51.978;5.330;2022-12-07T12:25:45;83.37;;;77.37;;
14187;SDS011;7175;51.978;5.330;2022-12-07T12:28:20;83.80;;;77.70;;
14187;SDS011;7175;51.978;5.330;2022-12-07T12:31:05;85.53;;;79.33;;
14187;SDS011;7175;51.978;5.330;2022-12-07T12:33:36;92.97;;;86.47;;
14187;SDS011;7175;51.978;5.330;2022-12-07T12:36:16;93.13;;;86.73;;
14187;SDS011;7175;51.978;5.330;2022-12-07T12:38:50;85.37;;;79.43;;
14187;SDS011;7175;51.978;5.330;2022-12-07T12:47:52;69.17;;;64.07;;
14187;SDS011;7175;51.978;5.330;2022-12-07T12:50:24;69.27;;;64.33;;
14187;SDS011;7175;51.978;5.330;2022-12-07T12:52:55;69.90;;;65.00;;
14187;SDS011;7175;51.978;5.330;2022-12-07T12:58:37;63.50;;;59.10;;
14187;SDS011;7175;51.978;5.330;2022-12-07T13:07:03;56.90;;;52.90;;
14187;SDS011;7175;51.978;5.330;2022-12-07T13:09:32;57.50;;;53.50;;
14187;SDS011;7175;51.978;5.330;2022-12-07T13:12:03;58.40;;;54.40;;
14187;SDS011;7175;51.978;5.330;2022-12-07T13:14:41;54.90;;;51.10;;
14187;SDS011;7175;51.978;5.330;2022-12-07T13:17:11;55.10;;;51.20;;
14187;SDS011;7175;51.978;5.330;2022-12-07T13:19:59;54.60;;;50.70;;
14187;SDS011;7175;51.978;5.330;2022-12-07T13:28:09;49.63;;;46.13;;
14187;SDS011;7175;51.978;5.330;2022-12-07T13:30:45;47.70;;;44.30;;
14187;SDS011;7175;51.978;5.330;2022-12-07T13:33:17;47.70;;;44.30;;
14187;SDS011;7175;51.978;5.330;2022-12-07T13:35:46;45.50;;;42.20;;
14187;SDS011;7175;51.978;5.330;2022-12-07T13:38:16;44.37;;;41.17;;
14187;SDS011;7175;51.978;5.330;2022-12-07T13:41:14;40.80;;;37.80;;
14187;SDS011;7175;51.978;5.330;2022-12-07T13:43:45;41.20;;;38.20;;
14187;SDS011;7175;51.978;5.330;2022-12-07T13:46:18;42.10;;;39.10;;
14187;SDS011;7175;51.978;5.330;2022-12-07T13:48:53;42.47;;;39.43;;
14187;SDS011;7175;51.978;5.330;2022-12-07T13:51:23;44.23;;;41.13;;
14187;SDS011;7175;51.978;5.330;2022-12-07T13:53:53;50.53;;;47.03;;
14187;SDS011;7175;51.978;5.330;2022-12-07T13:56:25;45.97;;;42.77;;
14187;SDS011;7175;51.978;5.330;2022-12-07T13:58:55;47.13;;;43.90;;
14187;SDS011;7175;51.978;5.330;2022-12-07T14:01:25;45.37;;;42.17;;
14187;SDS011;7175;51.978;5.330;2022-12-07T14:03:54;45.80;;;42.60;;
14187;SDS011;7175;51.978;5.330;2022-12-07T14:06:23;44.80;;;41.60;;
14187;SDS011;7175;51.978;5.330;2022-12-07T14:09:07;43.40;;;40.30;;
14187;SDS011;7175;51.978;5.330;2022-12-07T14:11:44;44.10;;;40.90;;
14187;SDS011;7175;51.978;5.330;2022-12-07T14:14:14;43.03;;;39.93;;
14187;SDS011;7175;51.978;5.330;2022-12-07T14:16:56;40.60;;;37.60;;
14187;SDS011;7175;51.978;5.330;2022-12-07T14:19:41;39.07;;;36.10;;
14187;SDS011;7175;51.978;5.330;2022-12-07T14:22:26;39.03;;;36.10;;
14187;SDS011;7175;51.978;5.330;2022-12-07T14:27:48;39.50;;;36.60;;
14187;SDS011;7175;51.978;5.330;2022-12-07T14:30:19;40.93;;;37.93;;
14187;SDS011;7175;51.978;5.330;2022-12-07T14:32:50;41.53;;;38.50;;
14187;SDS011;7175;51.978;5.330;2022-12-07T14:35:20;39.87;;;36.97;;
14187;SDS011;7175;51.978;5.330;2022-12-07T14:37:49;40.33;;;37.33;;
14187;SDS011;7175;51.978;5.330;2022-12-07T14:40:18;41.27;;;38.27;;
14187;SDS011;7175;51.978;5.330;2022-12-07T14:42:49;40.90;;;37.90;;
14187;SDS011;7175;51.978;5.330;2022-12-07T14:45:20;41.00;;;38.00;;
14187;SDS011;7175;51.978;5.330;2022-12-07T14:47:51;42.53;;;39.43;;
14187;SDS011;7175;51.978;5.330;2022-12-07T14:50:40;40.57;;;37.57;;
14187;SDS011;7175;51.978;5.330;2022-12-07T14:53:31;40.70;;;37.70;;
14187;SDS011;7175;51.978;5.330;2022-12-07T14:56:02;41.07;;;38.07;;
14187;SDS011;7175;51.978;5.330;2022-12-07T14:58:32;40.97;;;37.97;;
14187;SDS011;7175;51.978;5.330;2022-12-07T15:01:00;41.23;;;38.23;;
14187;SDS011;7175;51.978;5.330;2022-12-07T15:03:30;42.33;;;39.23;;
14187;SDS011;7175;51.978;5.330;2022-12-07T15:06:01;39.10;;;36.20;;
14187;SDS011;7175;51.978;5.330;2022-12-07T15:08:30;41.70;;;38.40;;
14187;SDS011;7175;51.978;5.330;2022-12-07T15:10:59;41.17;;;37.97;;
14187;SDS011;7175;51.978;5.330;2022-12-07T15:13:27;43.40;;;40.30;;
14187;SDS011;7175;51.978;5.330;2022-12-07T15:16:13;42.73;;;39.73;;
14187;SDS011;7175;51.978;5.330;2022-12-07T15:18:49;43.07;;;39.97;;
14187;SDS011;7175;51.978;5.330;2022-12-07T15:21:38;43.23;;;40.13;;
14187;SDS011;7175;51.978;5.330;2022-12-07T15:24:08;45.53;;;42.33;;
14187;SDS011;7175;51.978;5.330;2022-12-07T15:26:37;47.40;;;43.63;;
14187;SDS011;7175;51.978;5.330;2022-12-07T15:29:06;47.43;;;44.13;;
14187;SDS011;7175;51.978;5.330;2022-12-07T15:31:35;49.30;;;45.90;;
14187;SDS011;7175;51.978;5.330;2022-12-07T15:34:22;49.90;;;46.40;;
14187;SDS011;7175;51.978;5.330;2022-12-07T15:36:51;47.90;;;44.53;;
14187;SDS011;7175;51.978;5.330;2022-12-07T15:39:19;50.80;;;47.30;;